createdAt,value
2019-05-14T00:02:12.279Z,102124.93
2019-05-14T00:07:13.432Z,102112.39
2019-05-14T00:12:15.883Z,102112.30
2019-05-14T00:17:18.329Z,102099.19
2019-05-14T00:22:21.833Z,102096.55
2019-05-14T00:27:23.226Z,102104.17
2019-05-14T00:32:25.694Z,102091.91
2019-05-14T00:37:28.142Z,102092.25
2019-05-14T00:42:31.907Z,102082.55
2019-05-14T00:47:33.047Z,102082.52
2019-05-14T00:52:35.501Z,102080.02
2019-05-14T00:57:37.956Z,102077.95
2019-05-14T01:02:41.565Z,102078.34
2019-05-14T01:07:42.870Z,102079.16
2019-05-14T01:12:45.333Z,102072.39
2019-05-14T01:17:47.786Z,102070.48
2019-05-14T01:22:51.650Z,102076.61
2019-05-14T01:27:52.712Z,102080.41
2019-05-14T01:32:55.163Z,102076.14
2019-05-14T01:37:57.621Z,102076.28
2019-05-14T01:43:02.392Z,102079.60
2019-05-14T01:48:02.549Z,102080.83
2019-05-14T01:53:05.011Z,102073.23
2019-05-14T01:58:07.471Z,102068.34
2019-05-14T02:03:11.965Z,102071.34
2019-05-14T02:08:12.402Z,102059.55
2019-05-14T02:13:14.862Z,102062.47
2019-05-14T02:18:17.319Z,102065.08
2019-05-14T02:23:19.775Z,102060.00
2019-05-14T02:28:22.314Z,102060.98
2019-05-14T02:33:24.702Z,102056.41
2019-05-14T02:38:30.030Z,102055.73
2019-05-14T02:43:29.745Z,102053.77
2019-05-14T02:48:32.090Z,102049.97
2019-05-14T02:53:34.554Z,102054.06
2019-05-14T02:58:40.007Z,102046.56
2019-05-14T03:03:40.423Z,102037.47
2019-05-14T03:08:42.045Z,102049.20
2019-05-14T03:13:44.476Z,102042.38
2019-05-14T03:18:49.924Z,102038.39
2019-05-14T03:23:50.072Z,102046.61
2019-05-14T03:28:52.537Z,102046.38
2019-05-14T03:33:55.027Z,102037.17
2019-05-14T03:38:59.336Z,102034.41
2019-05-14T03:44:00.323Z,102034.66
2019-05-14T03:49:02.388Z,102027.63
2019-05-14T03:54:07.885Z,102020.85
2019-05-14T03:59:09.599Z,102026.45
2019-05-14T04:04:10.324Z,102012.41
2019-05-14T04:09:12.233Z,102017.84
2019-05-14T04:14:14.700Z,102005.50
2019-05-14T04:19:19.008Z,102002.69
2019-05-14T04:24:20.155Z,102003.67
2019-05-14T04:29:22.118Z,102001.77
2019-05-14T04:34:24.586Z,102002.30
2019-05-14T04:39:30.442Z,101999.76
2019-05-14T04:44:29.960Z,102005.81
2019-05-14T04:49:31.988Z,102009.52
2019-05-14T04:54:34.443Z,102009.25
2019-05-14T04:59:39.692Z,102007.23
2019-05-14T05:04:41.241Z,102006.59
2019-05-14T05:09:41.863Z,102011.06
2019-05-14T05:14:44.325Z,102023.05
2019-05-14T05:19:51.215Z,102013.16
2019-05-14T05:24:49.267Z,102014.30
2019-05-14T05:29:51.729Z,102013.30
2019-05-14T05:34:54.208Z,102015.06
2019-05-14T05:39:58.443Z,102013.13
2019-05-14T05:45:00.492Z,102012.77
2019-05-14T05:50:02.947Z,102013.91
2019-05-14T05:55:05.463Z,102016.93
2019-05-14T06:00:09.390Z,102010.37
2019-05-14T06:05:10.402Z,102007.80
2019-05-14T06:10:12.880Z,102000.80
2019-05-14T06:15:15.345Z,102012.67
2019-05-14T06:20:18.986Z,102014.07
2019-05-14T06:25:21.170Z,102010.91
2019-05-14T06:30:31.653Z,102004.44
2019-05-14T06:35:34.119Z,102007.72
2019-05-14T06:40:39.278Z,102003.36
2019-05-14T06:45:39.307Z,102002.23
2019-05-14T06:50:41.542Z,102003.63
2019-05-14T06:55:44.027Z,102001.01
2019-05-14T07:00:46.496Z,101998.03
2019-05-14T07:05:49.412Z,102000.17
2019-05-14T07:10:51.523Z,101998.61
2019-05-14T07:15:53.987Z,102008.91
2019-05-14T07:20:58.672Z,101988.66
2019-05-14T07:25:59.088Z,101990.87
2019-05-14T07:31:01.391Z,101990.40
2019-05-14T07:36:03.864Z,101992.89
2019-05-14T07:41:08.954Z,101984.92
2019-05-14T07:46:08.840Z,101987.13
2019-05-14T07:51:11.314Z,101981.14
2019-05-14T07:56:13.809Z,101974.30
2019-05-14T08:01:18.517Z,101970.58
2019-05-14T08:06:19.194Z,101958.84
2019-05-14T08:11:21.196Z,101955.80
2019-05-14T08:16:23.681Z,101946.69
2019-05-14T08:21:28.331Z,101941.84
2019-05-14T08:26:29.310Z,101941.67
2019-05-14T08:31:31.108Z,101939.11
2019-05-14T08:36:33.562Z,101950.81
2019-05-14T08:41:38.282Z,101941.08
2019-05-14T08:46:39.006Z,101945.09
2019-05-14T08:51:40.975Z,101938.72
2019-05-14T08:56:43.434Z,101924.27
2019-05-14T09:02:00.876Z,101930.61
2019-05-14T09:06:48.890Z,101919.70
2019-05-14T09:11:50.841Z,101917.58
2019-05-14T09:16:53.440Z,101905.35
2019-05-14T09:21:58.622Z,101902.28
2019-05-14T09:26:59.255Z,101887.76
2019-05-14T09:32:00.933Z,101875.20
2019-05-14T09:37:03.363Z,101891.26
2019-05-14T09:42:07.954Z,101885.56
2019-05-14T09:47:08.691Z,101876.23
2019-05-14T09:52:10.652Z,101865.36
2019-05-14T09:57:13.141Z,101886.91
2019-05-14T10:02:15.564Z,101887.77
2019-05-14T10:07:18.013Z,101873.69
2019-05-14T10:12:20.502Z,101875.42
2019-05-14T10:17:22.993Z,101864.58
2019-05-14T10:22:25.446Z,101849.91
2019-05-14T10:27:28.454Z,101846.81
2019-05-14T10:32:30.379Z,101837.26
2019-05-14T10:37:32.862Z,101839.19
2019-05-14T10:42:35.344Z,101830.88
2019-05-14T10:47:38.870Z,101818.76
2019-05-14T10:52:40.292Z,101822.53
2019-05-14T10:57:42.750Z,101812.53
2019-05-14T11:02:45.225Z,101808.78
2019-05-14T11:07:48.336Z,101801.80
2019-05-14T11:12:52.788Z,101810.61
2019-05-14T11:17:52.619Z,101794.93
2019-05-14T11:22:55.080Z,101803.03
2019-05-14T11:27:58.670Z,101784.86
2019-05-14T11:33:00.023Z,101793.19
2019-05-14T11:38:02.517Z,101789.36
2019-05-14T11:43:05.056Z,101794.38
2019-05-14T11:48:08.899Z,101793.19
2019-05-14T11:53:10.040Z,101789.64
2019-05-14T11:58:12.502Z,101786.39
2019-05-14T12:03:15.028Z,101764.73
2019-05-14T12:08:18.560Z,101766.17
2019-05-14T12:13:19.986Z,101760.77
2019-05-14T12:18:22.443Z,101743.22
2019-05-14T12:23:24.903Z,101748.84
2019-05-14T12:28:29.181Z,101736.16
2019-05-14T12:33:31.418Z,101744.46
2019-05-14T12:38:32.303Z,101740.77
2019-05-14T12:43:34.782Z,101740.19
2019-05-14T12:48:38.960Z,101731.84
2019-05-14T12:53:39.805Z,101712.40
2019-05-14T12:58:45.708Z,101701.28
2019-05-14T13:03:44.594Z,101697.55
2019-05-14T13:08:49.130Z,101694.19
2019-05-14T13:13:49.655Z,101680.89
2019-05-14T13:18:52.112Z,101688.11
2019-05-14T13:23:54.566Z,101685.41
2019-05-14T13:28:58.955Z,101667.97
2019-05-14T13:33:59.703Z,101660.20
2019-05-14T13:39:02.016Z,101656.16
2019-05-14T13:44:18.449Z,101650.43
2019-05-14T13:49:06.975Z,101650.09
2019-05-14T13:54:09.433Z,101653.17
2019-05-14T13:59:11.942Z,101644.54
2019-05-14T14:04:15.254Z,101635.47
2019-05-14T14:09:16.888Z,101632.44
2019-05-14T14:14:20.093Z,101625.75
2019-05-14T14:19:21.846Z,101625.25
2019-05-14T14:24:24.319Z,101631.31
2019-05-14T14:29:26.774Z,101623.98
2019-05-14T14:34:29.247Z,101623.34
2019-05-14T14:39:31.738Z,101618.61
2019-05-14T14:44:34.311Z,101616.61
2019-05-14T14:49:42.274Z,101607.79
2019-05-14T14:54:39.365Z,101616.48
2019-05-14T14:59:41.824Z,101612.86
2019-05-14T15:04:44.316Z,101607.66
2019-05-14T15:09:48.735Z,101599.20
2019-05-14T15:14:49.281Z,101593.34
2019-05-14T15:19:51.755Z,101590.81
2019-05-14T15:24:55.145Z,101596.89
2019-05-14T15:29:59.375Z,101591.02
2019-05-14T15:35:00.108Z,101596.62
2019-05-14T15:45:04.347Z,101591.61
2019-05-14T15:50:09.168Z,101591.95
2019-05-14T15:55:09.405Z,101585.16
2019-05-14T16:00:11.899Z,101576.36
2019-05-14T16:05:14.344Z,101571.61
2019-05-14T16:10:16.844Z,101572.98
2019-05-14T16:15:19.318Z,101576.98
2019-05-14T16:20:21.803Z,101568.16
2019-05-14T16:25:24.300Z,101560.88
2019-05-14T16:30:28.951Z,101557.29
2019-05-14T16:35:29.272Z,101559.69
2019-05-14T16:40:31.746Z,101560.10
2019-05-14T16:45:34.204Z,101567.74
2019-05-14T16:50:36.677Z,101564.80
2019-05-14T16:55:39.136Z,101557.59
2019-05-14T17:00:41.621Z,101560.05
2019-05-14T17:05:44.080Z,101566.94
2019-05-14T17:10:48.239Z,101569.52
2019-05-14T17:15:49.020Z,101561.39
2019-05-14T17:20:51.529Z,101560.00
2019-05-14T17:25:54.002Z,101564.14
2019-05-14T17:30:56.453Z,101558.30
2019-05-14T17:35:59.057Z,101564.02
2019-05-14T17:41:01.390Z,101563.11
2019-05-14T17:46:03.882Z,101572.16
2019-05-14T17:51:09.129Z,101563.98
2019-05-14T17:56:08.834Z,101562.14
2019-05-14T18:01:11.317Z,101557.25
2019-05-14T18:06:14.045Z,101557.45
2019-05-14T18:11:18.943Z,101565.13
2019-05-14T18:16:19.353Z,101557.52
2019-05-14T18:21:21.472Z,101563.16
2019-05-14T18:26:23.959Z,101569.59
2019-05-14T18:31:26.475Z,101571.58
2019-05-14T18:36:28.948Z,101571.53
2019-05-14T18:41:31.417Z,101568.27
2019-05-14T18:46:33.879Z,101568.18
2019-05-14T18:51:36.375Z,101574.72
2019-05-14T18:56:38.872Z,101578.16
2019-05-14T19:01:41.329Z,101573.20
2019-05-14T19:06:43.819Z,101583.45
2019-05-14T19:11:48.216Z,101583.27
2019-05-14T19:16:49.125Z,101579.38
2019-05-14T19:21:51.268Z,101584.42
2019-05-14T19:26:53.775Z,101582.78
2019-05-14T19:31:56.236Z,101590.70
2019-05-14T19:36:58.746Z,101590.23
2019-05-14T19:42:01.230Z,101595.80
2019-05-14T19:47:03.923Z,101595.86
2019-05-14T19:52:08.238Z,101596.39
2019-05-14T19:57:09.949Z,101601.58
2019-05-14T20:02:11.471Z,101604.66
2019-05-14T20:07:13.939Z,101602.22
2019-05-14T20:12:18.238Z,101598.04
2019-05-14T20:17:19.511Z,101602.10
2019-05-14T20:22:21.352Z,101596.17
2019-05-14T20:27:23.814Z,101588.75
2019-05-14T20:32:26.282Z,101592.44
2019-05-14T20:37:29.192Z,101586.48
2019-05-14T20:42:31.297Z,101586.37
2019-05-14T20:47:33.776Z,101579.31
2019-05-14T20:52:36.239Z,101581.98
2019-05-14T20:57:38.851Z,101594.67
2019-05-14T21:02:41.170Z,101586.57
2019-05-14T21:07:43.878Z,101591.80
2019-05-14T21:12:48.671Z,101592.14
2019-05-14T21:17:50.445Z,101585.47
2019-05-14T21:22:51.080Z,101583.56
2019-05-14T21:27:53.529Z,101592.84
2019-05-14T21:32:56.056Z,101585.95
2019-05-14T21:37:59.296Z,101595.92
2019-05-14T21:43:00.967Z,101593.31
2019-05-14T21:48:03.480Z,101591.27
2019-05-14T21:53:08.207Z,101594.95
2019-05-14T21:58:09.064Z,101594.78
2019-05-14T22:03:10.893Z,101591.98
2019-05-14T22:08:13.421Z,101595.38
2019-05-14T22:13:18.064Z,101590.25
2019-05-14T22:18:20.691Z,101589.81
2019-05-14T22:23:21.200Z,101586.08
2019-05-14T22:28:23.310Z,101581.09
2019-05-14T22:33:25.776Z,101573.23
2019-05-14T22:38:29.300Z,101580.80
2019-05-14T22:43:30.683Z,101574.05
2019-05-14T22:48:33.143Z,101559.08
2019-05-14T22:53:35.624Z,101557.54
2019-05-14T22:58:38.498Z,101560.38
2019-05-14T23:03:40.561Z,101557.79
2019-05-14T23:08:43.003Z,101561.20
2019-05-14T23:13:45.449Z,101561.34
2019-05-14T23:18:48.755Z,101566.73
2019-05-14T23:23:50.600Z,101561.96
2019-05-14T23:28:53.052Z,101559.47
2019-05-14T23:33:55.509Z,101560.72
2019-05-14T23:38:59.089Z,101555.30
2019-05-14T23:44:00.399Z,101550.12
2019-05-14T23:49:02.858Z,101543.77
2019-05-14T23:54:05.320Z,101541.51
2019-05-14T23:59:09.365Z,101546.56
